sensor_id;sensor_type;location;lat;lon;timestamp;P1;durP1;ratioP1;P2;durP2;ratioP2
6832;SDS011;3454;42.654;23.378;2023-03-24T00:02:25;12.37;;;8.00;;
6832;SDS011;3454;42.654;23.378;2023-03-24T00:04:53;13.93;;;8.13;;
6832;SDS011;3454;42.654;23.378;2023-03-24T00:07:22;9.37;;;6.77;;
6832;SDS011;3454;42.654;23.378;2023-03-24T00:09:48;8.97;;;6.57;;
6832;SDS011;3454;42.654;23.378;2023-03-24T00:12:14;14.17;;;7.90;;
6832;SDS011;3454;42.654;23.378;2023-03-24T00:14:43;10.23;;;7.30;;
6832;SDS011;3454;42.654;23.378;2023-03-24T00:17:12;10.40;;;7.47;;
6832;SDS011;3454;42.654;23.378;2023-03-24T00:19:44;10.17;;;7.80;;
6832;SDS011;3454;42.654;23.378;2023-03-24T00:22:09;10.97;;;7.23;;
6832;SDS011;3454;42.654;23.378;2023-03-24T00:24:38;10.57;;;7.30;;
6832;SDS011;3454;42.654;23.378;2023-03-24T00:27:12;13.93;;;7.43;;
6832;SDS011;3454;42.654;23.378;2023-03-24T00:29:45;11.83;;;6.60;;
6832;SDS011;3454;42.654;23.378;2023-03-24T00:32:11;16.47;;;7.67;;
6832;SDS011;3454;42.654;23.378;2023-03-24T00:34:36;14.90;;;8.37;;
6832;SDS011;3454;42.654;23.378;2023-03-24T00:37:02;10.67;;;7.30;;
6832;SDS011;3454;42.654;23.378;2023-03-24T00:39:30;13.23;;;7.60;;
6832;SDS011;3454;42.654;23.378;2023-03-24T00:41:56;11.37;;;7.40;;
6832;SDS011;3454;42.654;23.378;2023-03-24T00:44:22;16.83;;;8.80;;
6832;SDS011;3454;42.654;23.378;2023-03-24T00:46:49;16.87;;;9.77;;
6832;SDS011;3454;42.654;23.378;2023-03-24T00:49:22;14.03;;;8.97;;
6832;SDS011;3454;42.654;23.378;2023-03-24T00:52:12;15.43;;;9.60;;
6832;SDS011;3454;42.654;23.378;2023-03-24T00:54:40;14.73;;;10.17;;
6832;SDS011;3454;42.654;23.378;2023-03-24T00:57:06;18.07;;;9.97;;
6832;SDS011;3454;42.654;23.378;2023-03-24T00:59:33;18.20;;;10.90;;
6832;SDS011;3454;42.654;23.378;2023-03-24T01:02:06;17.63;;;10.43;;
6832;SDS011;3454;42.654;23.378;2023-03-24T01:04:39;17.30;;;10.00;;
6832;SDS011;3454;42.654;23.378;2023-03-24T01:07:05;15.53;;;11.43;;
6832;SDS011;3454;42.654;23.378;2023-03-24T01:09:33;14.90;;;9.60;;
6832;SDS011;3454;42.654;23.378;2023-03-24T01:12:00;18.10;;;10.03;;
6832;SDS011;3454;42.654;23.378;2023-03-24T01:14:28;17.53;;;10.83;;
6832;SDS011;3454;42.654;23.378;2023-03-24T01:16:54;15.27;;;9.73;;
6832;SDS011;3454;42.654;23.378;2023-03-24T01:19:19;15.60;;;9.73;;
6832;SDS011;3454;42.654;23.378;2023-03-24T01:21:45;15.80;;;9.77;;
6832;SDS011;3454;42.654;23.378;2023-03-24T01:24:12;15.27;;;8.70;;
6832;SDS011;3454;42.654;23.378;2023-03-24T01:26:38;13.83;;;8.27;;
6832;SDS011;3454;42.654;23.378;2023-03-24T01:29:03;17.00;;;9.20;;
6832;SDS011;3454;42.654;23.378;2023-03-24T01:31:29;13.47;;;9.10;;
6832;SDS011;3454;42.654;23.378;2023-03-24T01:33:55;14.03;;;8.57;;
6832;SDS011;3454;42.654;23.378;2023-03-24T01:36:21;13.77;;;8.53;;
6832;SDS011;3454;42.654;23.378;2023-03-24T01:38:46;16.13;;;9.23;;
6832;SDS011;3454;42.654;23.378;2023-03-24T01:41:12;14.17;;;8.90;;
6832;SDS011;3454;42.654;23.378;2023-03-24T01:43:37;14.03;;;8.17;;
6832;SDS011;3454;42.654;23.378;2023-03-24T01:46:07;14.17;;;9.10;;
6832;SDS011;3454;42.654;23.378;2023-03-24T01:48:53;14.47;;;8.40;;
6832;SDS011;3454;42.654;23.378;2023-03-24T01:54:09;13.37;;;8.47;;
6832;SDS011;3454;42.654;23.378;2023-03-24T01:56:42;13.63;;;8.40;;
6832;SDS011;3454;42.654;23.378;2023-03-24T01:59:16;10.33;;;8.07;;
6832;SDS011;3454;42.654;23.378;2023-03-24T02:01:44;12.93;;;7.90;;
6832;SDS011;3454;42.654;23.378;2023-03-24T02:04:10;13.73;;;7.83;;
6832;SDS011;3454;42.654;23.378;2023-03-24T02:06:38;13.37;;;8.47;;
6832;SDS011;3454;42.654;23.378;2023-03-24T02:09:08;16.97;;;8.13;;
6832;SDS011;3454;42.654;23.378;2023-03-24T02:11:35;13.73;;;8.27;;
6832;SDS011;3454;42.654;23.378;2023-03-24T02:14:02;11.77;;;8.00;;
6832;SDS011;3454;42.654;23.378;2023-03-24T02:30:37;15.43;;;8.30;;
6832;SDS011;3454;42.654;23.378;2023-03-24T02:38:54;12.97;;;7.80;;
6832;SDS011;3454;42.654;23.378;2023-03-24T02:41:26;14.53;;;8.33;;
6832;SDS011;3454;42.654;23.378;2023-03-24T02:44:02;14.70;;;8.67;;
6832;SDS011;3454;42.654;23.378;2023-03-24T02:47:06;12.40;;;8.07;;
6832;SDS011;3454;42.654;23.378;2023-03-24T02:49:43;15.77;;;8.10;;
6832;SDS011;3454;42.654;23.378;2023-03-24T02:52:38;15.47;;;8.50;;
6832;SDS011;3454;42.654;23.378;2023-03-24T02:55:19;11.20;;;7.83;;
6832;SDS011;3454;42.654;23.378;2023-03-24T02:57:57;11.67;;;7.70;;
6832;SDS011;3454;42.654;23.378;2023-03-24T03:00:45;11.17;;;7.27;;
6832;SDS011;3454;42.654;23.378;2023-03-24T03:05:52;13.03;;;7.70;;
6832;SDS011;3454;42.654;23.378;2023-03-24T03:08:22;12.70;;;7.23;;
6832;SDS011;3454;42.654;23.378;2023-03-24T03:10:51;11.17;;;7.13;;
6832;SDS011;3454;42.654;23.378;2023-03-24T03:13:23;10.40;;;7.30;;
6832;SDS011;3454;42.654;23.378;2023-03-24T03:16:03;13.03;;;7.20;;
6832;SDS011;3454;42.654;23.378;2023-03-24T03:18:35;11.60;;;7.23;;
6832;SDS011;3454;42.654;23.378;2023-03-24T03:21:09;10.40;;;6.93;;
6832;SDS011;3454;42.654;23.378;2023-03-24T03:23:49;10.63;;;7.40;;
6832;SDS011;3454;42.654;23.378;2023-03-24T03:26:19;10.17;;;6.73;;
6832;SDS011;3454;42.654;23.378;2023-03-24T03:28:49;11.77;;;7.60;;
6832;SDS011;3454;42.654;23.378;2023-03-24T03:31:24;10.73;;;7.30;;
6832;SDS011;3454;42.654;23.378;2023-03-24T03:36:52;17.60;;;8.33;;
6832;SDS011;3454;42.654;23.378;2023-03-24T03:39:25;9.03;;;6.27;;
6832;SDS011;3454;42.654;23.378;2023-03-24T03:41:54;9.07;;;5.77;;
6832;SDS011;3454;42.654;23.378;2023-03-24T03:44:20;8.53;;;5.67;;
6832;SDS011;3454;42.654;23.378;2023-03-24T03:46:46;6.67;;;5.33;;
6832;SDS011;3454;42.654;23.378;2023-03-24T03:49:11;10.60;;;6.00;;
6832;SDS011;3454;42.654;23.378;2023-03-24T03:51:37;6.93;;;5.17;;
6832;SDS011;3454;42.654;23.378;2023-03-24T03:54:03;7.83;;;5.53;;
6832;SDS011;3454;42.654;23.378;2023-03-24T03:56:32;9.03;;;5.63;;
6832;SDS011;3454;42.654;23.378;2023-03-24T03:58:58;8.07;;;5.23;;
6832;SDS011;3454;42.654;23.378;2023-03-24T04:01:25;9.60;;;5.80;;
6832;SDS011;3454;42.654;23.378;2023-03-24T04:24:46;9.73;;;6.40;;
6832;SDS011;3454;42.654;23.378;2023-03-24T04:27:23;10.30;;;6.50;;
6832;SDS011;3454;42.654;23.378;2023-03-24T04:30:37;7.50;;;5.60;;
6832;SDS011;3454;42.654;23.378;2023-03-24T04:35:44;9.93;;;6.20;;
6832;SDS011;3454;42.654;23.378;2023-03-24T04:38:15;12.37;;;7.30;;
6832;SDS011;3454;42.654;23.378;2023-03-24T04:40:47;11.17;;;6.83;;
6832;SDS011;3454;42.654;23.378;2023-03-24T04:43:16;10.83;;;8.03;;
6832;SDS011;3454;42.654;23.378;2023-03-24T04:45:45;16.17;;;9.73;;
6832;SDS011;3454;42.654;23.378;2023-03-24T04:48:14;9.30;;;7.30;;
6832;SDS011;3454;42.654;23.378;2023-03-24T04:50:42;8.80;;;6.53;;
6832;SDS011;3454;42.654;23.378;2023-03-24T04:53:14;12.50;;;6.83;;
6832;SDS011;3454;42.654;23.378;2023-03-24T04:58:15;13.07;;;7.60;;
6832;SDS011;3454;42.654;23.378;2023-03-24T05:00:41;12.17;;;8.30;;
6832;SDS011;3454;42.654;23.378;2023-03-24T05:03:08;9.73;;;6.60;;
6832;SDS011;3454;42.654;23.378;2023-03-24T05:05:38;9.27;;;6.70;;
6832;SDS011;3454;42.654;23.378;2023-03-24T05:08:07;12.03;;;6.77;;
6832;SDS011;3454;42.654;23.378;2023-03-24T05:10:33;13.37;;;7.27;;
6832;SDS011;3454;42.654;23.378;2023-03-24T05:12:59;8.60;;;6.17;;
6832;SDS011;3454;42.654;23.378;2023-03-24T05:15:25;15.57;;;7.70;;
6832;SDS011;3454;42.654;23.378;2023-03-24T05:17:50;13.27;;;7.07;;
6832;SDS011;3454;42.654;23.378;2023-03-24T05:20:16;12.17;;;7.70;;
6832;SDS011;3454;42.654;23.378;2023-03-24T05:22:43;8.37;;;6.23;;
6832;SDS011;3454;42.654;23.378;2023-03-24T05:25:08;10.13;;;6.30;;
6832;SDS011;3454;42.654;23.378;2023-03-24T05:27:34;10.77;;;6.80;;
6832;SDS011;3454;42.654;23.378;2023-03-24T05:30:00;8.87;;;6.40;;
6832;SDS011;3454;42.654;23.378;2023-03-24T05:32:27;10.93;;;6.73;;
6832;SDS011;3454;42.654;23.378;2023-03-24T05:34:52;9.00;;;6.40;;
6832;SDS011;3454;42.654;23.378;2023-03-24T05:37:18;13.70;;;6.20;;
6832;SDS011;3454;42.654;23.378;2023-03-24T05:39:43;9.50;;;6.40;;
6832;SDS011;3454;42.654;23.378;2023-03-24T05:42:09;9.60;;;6.33;;
6832;SDS011;3454;42.654;23.378;2023-03-24T05:44:35;9.03;;;7.23;;
6832;SDS011;3454;42.654;23.378;2023-03-24T05:47:01;10.77;;;6.90;;
6832;SDS011;3454;42.654;23.378;2023-03-24T05:49:27;11.10;;;6.30;;
6832;SDS011;3454;42.654;23.378;2023-03-24T05:51:52;10.60;;;6.57;;
6832;SDS011;3454;42.654;23.378;2023-03-24T05:54:18;13.03;;;6.77;;
6832;SDS011;3454;42.654;23.378;2023-03-24T05:56:43;11.27;;;6.93;;
6832;SDS011;3454;42.654;23.378;2023-03-24T05:59:09;14.87;;;7.33;;
6832;SDS011;3454;42.654;23.378;2023-03-24T06:01:36;13.03;;;7.27;;
6832;SDS011;3454;42.654;23.378;2023-03-24T06:04:01;11.57;;;7.50;;
6832;SDS011;3454;42.654;23.378;2023-03-24T06:06:27;15.27;;;7.47;;
6832;SDS011;3454;42.654;23.378;2023-03-24T06:08:52;20.33;;;8.90;;
6832;SDS011;3454;42.654;23.378;2023-03-24T06:11:22;12.93;;;8.60;;
6832;SDS011;3454;42.654;23.378;2023-03-24T06:13:48;14.47;;;9.87;;
6832;SDS011;3454;42.654;23.378;2023-03-24T06:16:13;21.60;;;11.70;;
6832;SDS011;3454;42.654;23.378;2023-03-24T06:18:39;21.27;;;12.43;;
6832;SDS011;3454;42.654;23.378;2023-03-24T06:21:06;23.00;;;12.20;;
6832;SDS011;3454;42.654;23.378;2023-03-24T06:23:32;22.63;;;14.13;;
6832;SDS011;3454;42.654;23.378;2023-03-24T06:25:58;25.43;;;14.57;;
6832;SDS011;3454;42.654;23.378;2023-03-24T06:28:32;23.57;;;13.83;;
6832;SDS011;3454;42.654;23.378;2023-03-24T06:31:06;29.73;;;16.33;;
6832;SDS011;3454;42.654;23.378;2023-03-24T06:33:38;23.07;;;15.07;;
6832;SDS011;3454;42.654;23.378;2023-03-24T06:36:07;27.37;;;14.67;;
6832;SDS011;3454;42.654;23.378;2023-03-24T06:38:33;22.63;;;15.10;;
6832;SDS011;3454;42.654;23.378;2023-03-24T06:41:00;24.27;;;15.90;;
6832;SDS011;3454;42.654;23.378;2023-03-24T06:43:26;27.37;;;15.83;;
6832;SDS011;3454;42.654;23.378;2023-03-24T06:45:51;27.37;;;15.33;;
6832;SDS011;3454;42.654;23.378;2023-03-24T06:48:17;32.40;;;16.23;;
6832;SDS011;3454;42.654;23.378;2023-03-24T06:50:42;26.83;;;17.03;;
6832;SDS011;3454;42.654;23.378;2023-03-24T06:53:08;23.13;;;15.53;;
6832;SDS011;3454;42.654;23.378;2023-03-24T06:55:34;25.53;;;14.33;;
6832;SDS011;3454;42.654;23.378;2023-03-24T06:57:59;17.03;;;11.70;;
6832;SDS011;3454;42.654;23.378;2023-03-24T07:00:25;19.70;;;12.00;;
6832;SDS011;3454;42.654;23.378;2023-03-24T07:02:53;17.87;;;11.57;;
6832;SDS011;3454;42.654;23.378;2023-03-24T07:05:20;19.00;;;10.77;;
6832;SDS011;3454;42.654;23.378;2023-03-24T07:07:46;18.70;;;10.30;;
6832;SDS011;3454;42.654;23.378;2023-03-24T07:10:11;17.75;;;9.75;;
6832;SDS011;3454;42.654;23.378;2023-03-24T07:12:38;15.32;;;8.88;;
6832;SDS011;3454;42.654;23.378;2023-03-24T07:15:04;17.80;;;12.00;;
6832;SDS011;3454;42.654;23.378;2023-03-24T07:17:32;15.50;;;9.68;;
6832;SDS011;3454;42.654;23.378;2023-03-24T07:19:58;16.05;;;10.55;;
6832;SDS011;3454;42.654;23.378;2023-03-24T07:22:23;16.42;;;10.45;;
6832;SDS011;3454;42.654;23.378;2023-03-24T07:24:49;18.65;;;13.20;;
6832;SDS011;3454;42.654;23.378;2023-03-24T07:27:15;20.08;;;12.73;;
6832;SDS011;3454;42.654;23.378;2023-03-24T07:29:40;17.08;;;12.25;;
6832;SDS011;3454;42.654;23.378;2023-03-24T07:32:05;18.70;;;12.48;;
6832;SDS011;3454;42.654;23.378;2023-03-24T07:34:32;21.52;;;13.27;;
6832;SDS011;3454;42.654;23.378;2023-03-24T07:36:58;21.33;;;14.00;;
6832;SDS011;3454;42.654;23.378;2023-03-24T07:39:23;18.27;;;12.35;;
6832;SDS011;3454;42.654;23.378;2023-03-24T07:41:49;20.45;;;13.25;;
6832;SDS011;3454;42.654;23.378;2023-03-24T07:44:15;27.70;;;13.70;;
6832;SDS011;3454;42.654;23.378;2023-03-24T07:46:40;21.90;;;12.30;;
6832;SDS011;3454;42.654;23.378;2023-03-24T07:49:06;24.07;;;13.70;;
6832;SDS011;3454;42.654;23.378;2023-03-24T07:51:31;20.70;;;12.97;;
6832;SDS011;3454;42.654;23.378;2023-03-24T07:53:57;21.67;;;13.93;;
6832;SDS011;3454;42.654;23.378;2023-03-24T07:56:23;21.07;;;13.57;;
6832;SDS011;3454;42.654;23.378;2023-03-24T07:58:48;20.77;;;13.30;;
6832;SDS011;3454;42.654;23.378;2023-03-24T08:01:14;24.80;;;14.63;;
6832;SDS011;3454;42.654;23.378;2023-03-24T08:03:40;20.17;;;14.27;;
6832;SDS011;3454;42.654;23.378;2023-03-24T08:06:06;21.75;;;14.02;;
6832;SDS011;3454;42.654;23.378;2023-03-24T08:08:33;20.80;;;12.80;;
6832;SDS011;3454;42.654;23.378;2023-03-24T08:11:00;27.03;;;14.37;;
6832;SDS011;3454;42.654;23.378;2023-03-24T08:13:25;22.03;;;14.50;;
6832;SDS011;3454;42.654;23.378;2023-03-24T08:15:51;18.45;;;13.68;;
6832;SDS011;3454;42.654;23.378;2023-03-24T08:18:17;17.57;;;11.97;;
6832;SDS011;3454;42.654;23.378;2023-03-24T08:20:45;19.07;;;11.87;;
6832;SDS011;3454;42.654;23.378;2023-03-24T08:23:11;24.52;;;11.93;;
6832;SDS011;3454;42.654;23.378;2023-03-24T08:25:36;23.17;;;12.47;;
6832;SDS011;3454;42.654;23.378;2023-03-24T08:28:02;16.87;;;11.13;;
6832;SDS011;3454;42.654;23.378;2023-03-24T08:30:28;20.20;;;11.90;;
6832;SDS011;3454;42.654;23.378;2023-03-24T08:32:55;21.93;;;13.50;;
6832;SDS011;3454;42.654;23.378;2023-03-24T08:35:27;18.67;;;12.13;;
6832;SDS011;3454;42.654;23.378;2023-03-24T08:37:55;20.17;;;12.43;;
6832;SDS011;3454;42.654;23.378;2023-03-24T08:40:24;16.27;;;12.37;;
6832;SDS011;3454;42.654;23.378;2023-03-24T08:42:51;23.80;;;12.55;;
6832;SDS011;3454;42.654;23.378;2023-03-24T08:45:19;21.70;;;13.55;;
6832;SDS011;3454;42.654;23.378;2023-03-24T08:47:48;20.45;;;12.77;;
6832;SDS011;3454;42.654;23.378;2023-03-24T08:50:14;23.08;;;13.23;;
6832;SDS011;3454;42.654;23.378;2023-03-24T08:52:40;24.50;;;12.50;;
6832;SDS011;3454;42.654;23.378;2023-03-24T08:55:06;22.45;;;12.95;;
6832;SDS011;3454;42.654;23.378;2023-03-24T08:57:34;18.65;;;12.63;;
6832;SDS011;3454;42.654;23.378;2023-03-24T08:59:59;23.20;;;12.43;;
6832;SDS011;3454;42.654;23.378;2023-03-24T09:02:25;19.73;;;11.60;;
6832;SDS011;3454;42.654;23.378;2023-03-24T09:04:51;18.45;;;12.00;;
6832;SDS011;3454;42.654;23.378;2023-03-24T09:07:19;25.13;;;12.63;;
6832;SDS011;3454;42.654;23.378;2023-03-24T09:09:46;19.77;;;11.75;;
6832;SDS011;3454;42.654;23.378;2023-03-24T09:12:11;15.43;;;11.00;;
6832;SDS011;3454;42.654;23.378;2023-03-24T09:14:36;19.75;;;12.65;;
6832;SDS011;3454;42.654;23.378;2023-03-24T09:17:02;21.98;;;12.63;;
6832;SDS011;3454;42.654;23.378;2023-03-24T09:19:27;20.88;;;12.60;;
6832;SDS011;3454;42.654;23.378;2023-03-24T09:21:53;18.02;;;11.75;;
6832;SDS011;3454;42.654;23.378;2023-03-24T09:24:18;24.42;;;13.07;;
6832;SDS011;3454;42.654;23.378;2023-03-24T09:26:44;16.65;;;11.82;;
6832;SDS011;3454;42.654;23.378;2023-03-24T09:29:09;16.50;;;10.82;;
6832;SDS011;3454;42.654;23.378;2023-03-24T09:31:34;16.30;;;11.07;;
6832;SDS011;3454;42.654;23.378;2023-03-24T09:34:00;15.93;;;10.60;;
6832;SDS011;3454;42.654;23.378;2023-03-24T09:36:27;19.55;;;10.93;;
6832;SDS011;3454;42.654;23.378;2023-03-24T09:38:52;16.98;;;11.02;;
6832;SDS011;3454;42.654;23.378;2023-03-24T09:41:20;14.57;;;10.82;;
6832;SDS011;3454;42.654;23.378;2023-03-24T09:46:40;16.20;;;11.13;;
6832;SDS011;3454;42.654;23.378;2023-03-24T09:49:11;15.25;;;10.05;;
6832;SDS011;3454;42.654;23.378;2023-03-24T09:51:41;16.02;;;10.45;;
6832;SDS011;3454;42.654;23.378;2023-03-24T09:56:51;18.80;;;9.65;;
6832;SDS011;3454;42.654;23.378;2023-03-24T10:01:50;16.95;;;9.27;;
6832;SDS011;3454;42.654;23.378;2023-03-24T10:04:20;19.50;;;10.32;;
6832;SDS011;3454;42.654;23.378;2023-03-24T10:06:49;16.27;;;9.55;;
6832;SDS011;3454;42.654;23.378;2023-03-24T10:17:29;15.23;;;8.88;;
6832;SDS011;3454;42.654;23.378;2023-03-24T10:23:15;13.93;;;9.30;;
6832;SDS011;3454;42.654;23.378;2023-03-24T10:31:30;12.23;;;8.25;;
6832;SDS011;3454;42.654;23.378;2023-03-24T10:33:58;12.88;;;8.60;;
6832;SDS011;3454;42.654;23.378;2023-03-24T10:36:24;13.55;;;7.53;;
6832;SDS011;3454;42.654;23.378;2023-03-24T10:38:52;10.15;;;7.65;;
6832;SDS011;3454;42.654;23.378;2023-03-24T10:41:18;11.80;;;8.63;;
6832;SDS011;3454;42.654;23.378;2023-03-24T10:43:46;16.33;;;7.38;;
6832;SDS011;3454;42.654;23.378;2023-03-24T10:46:13;12.50;;;7.85;;
6832;SDS011;3454;42.654;23.378;2023-03-24T10:48:45;11.98;;;8.40;;
6832;SDS011;3454;42.654;23.378;2023-03-24T10:51:14;11.85;;;8.50;;
6832;SDS011;3454;42.654;23.378;2023-03-24T10:53:42;11.73;;;7.60;;
6832;SDS011;3454;42.654;23.378;2023-03-24T10:56:14;11.15;;;7.35;;
6832;SDS011;3454;42.654;23.378;2023-03-24T10:58:41;12.57;;;7.72;;
6832;SDS011;3454;42.654;23.378;2023-03-24T11:01:41;9.15;;;7.18;;
6832;SDS011;3454;42.654;23.378;2023-03-24T11:04:03;10.68;;;7.00;;
6832;SDS011;3454;42.654;23.378;2023-03-24T11:06:31;10.68;;;7.75;;
6832;SDS011;3454;42.654;23.378;2023-03-24T11:09:14;10.05;;;7.63;;
6832;SDS011;3454;42.654;23.378;2023-03-24T11:11:43;8.98;;;7.35;;
6832;SDS011;3454;42.654;23.378;2023-03-24T11:14:25;8.63;;;7.63;;
6832;SDS011;3454;42.654;23.378;2023-03-24T11:16:52;12.30;;;7.78;;
6832;SDS011;3454;42.654;23.378;2023-03-24T11:19:26;11.48;;;7.18;;
6832;SDS011;3454;42.654;23.378;2023-03-24T11:21:52;12.20;;;7.10;;
6832;SDS011;3454;42.654;23.378;2023-03-24T11:24:25;11.65;;;6.75;;
6832;SDS011;3454;42.654;23.378;2023-03-24T11:26:56;10.25;;;6.28;;
6832;SDS011;3454;42.654;23.378;2023-03-24T11:29:26;10.07;;;6.82;;
6832;SDS011;3454;42.654;23.378;2023-03-24T11:32:01;7.72;;;6.40;;
6832;SDS011;3454;42.654;23.378;2023-03-24T11:34:30;9.30;;;6.88;;
6832;SDS011;3454;42.654;23.378;2023-03-24T11:37:21;9.50;;;6.38;;
6832;SDS011;3454;42.654;23.378;2023-03-24T11:40:24;10.95;;;6.55;;
6832;SDS011;3454;42.654;23.378;2023-03-24T11:42:43;11.05;;;6.22;;
6832;SDS011;3454;42.654;23.378;2023-03-24T11:45:22;10.07;;;6.38;;
6832;SDS011;3454;42.654;23.378;2023-03-24T11:47:52;11.38;;;6.05;;
6832;SDS011;3454;42.654;23.378;2023-03-24T11:50:29;10.95;;;6.60;;
6832;SDS011;3454;42.654;23.378;2023-03-24T11:55:50;9.30;;;6.07;;
6832;SDS011;3454;42.654;23.378;2023-03-24T12:00:50;7.72;;;4.95;;
6832;SDS011;3454;42.654;23.378;2023-03-24T12:20:22;8.20;;;5.13;;
6832;SDS011;3454;42.654;23.378;2023-03-24T12:25:41;10.60;;;5.03;;
6832;SDS011;3454;42.654;23.378;2023-03-24T12:31:36;7.20;;;4.72;;
6832;SDS011;3454;42.654;23.378;2023-03-24T12:39:09;6.60;;;4.53;;
6832;SDS011;3454;42.654;23.378;2023-03-24T12:41:43;6.35;;;4.72;;
6832;SDS011;3454;42.654;23.378;2023-03-24T12:55:25;7.38;;;4.80;;
6832;SDS011;3454;42.654;23.378;2023-03-24T12:58:21;5.10;;;4.38;;
6832;SDS011;3454;42.654;23.378;2023-03-24T13:01:05;6.50;;;3.70;;
6832;SDS011;3454;42.654;23.378;2023-03-24T13:03:45;5.22;;;4.20;;
6832;SDS011;3454;42.654;23.378;2023-03-24T13:06:23;7.03;;;3.90;;
6832;SDS011;3454;42.654;23.378;2023-03-24T13:11:39;5.40;;;3.20;;
6832;SDS011;3454;42.654;23.378;2023-03-24T13:14:11;7.25;;;4.30;;
6832;SDS011;3454;42.654;23.378;2023-03-24T13:16:41;7.93;;;4.25;;
6832;SDS011;3454;42.654;23.378;2023-03-24T13:19:14;4.93;;;3.78;;
6832;SDS011;3454;42.654;23.378;2023-03-24T13:21:44;6.72;;;4.03;;
6832;SDS011;3454;42.654;23.378;2023-03-24T13:24:12;7.68;;;3.80;;
6832;SDS011;3454;42.654;23.378;2023-03-24T13:37:19;7.55;;;4.50;;
6832;SDS011;3454;42.654;23.378;2023-03-24T13:39:49;6.20;;;3.80;;
6832;SDS011;3454;42.654;23.378;2023-03-24T13:42:31;8.70;;;3.80;;
6832;SDS011;3454;42.654;23.378;2023-03-24T13:45:00;6.47;;;4.05;;
6832;SDS011;3454;42.654;23.378;2023-03-24T13:47:46;7.85;;;3.47;;
6832;SDS011;3454;42.654;23.378;2023-03-24T13:50:13;7.10;;;3.35;;
6832;SDS011;3454;42.654;23.378;2023-03-24T13:52:44;8.43;;;3.22;;
6832;SDS011;3454;42.654;23.378;2023-03-24T13:55:14;6.65;;;3.63;;
6832;SDS011;3454;42.654;23.378;2023-03-24T13:57:51;3.90;;;2.33;;
6832;SDS011;3454;42.654;23.378;2023-03-24T14:06:44;3.03;;;2.65;;
6832;SDS011;3454;42.654;23.378;2023-03-24T14:14:28;5.43;;;2.90;;
6832;SDS011;3454;42.654;23.378;2023-03-24T14:17:15;3.03;;;2.72;;
6832;SDS011;3454;42.654;23.378;2023-03-24T14:19:45;3.50;;;2.22;;
6832;SDS011;3454;42.654;23.378;2023-03-24T14:22:33;2.83;;;2.47;;
6832;SDS011;3454;42.654;23.378;2023-03-24T14:27:45;2.97;;;2.58;;
6832;SDS011;3454;42.654;23.378;2023-03-24T14:30:14;2.67;;;2.20;;
6832;SDS011;3454;42.654;23.378;2023-03-24T14:32:52;3.47;;;2.20;;
6832;SDS011;3454;42.654;23.378;2023-03-24T14:35:29;2.42;;;2.08;;
6832;SDS011;3454;42.654;23.378;2023-03-24T14:38:03;4.22;;;2.28;;
6832;SDS011;3454;42.654;23.378;2023-03-24T14:40:39;2.88;;;2.40;;
6832;SDS011;3454;42.654;23.378;2023-03-24T14:43:23;2.53;;;2.13;;
6832;SDS011;3454;42.654;23.378;2023-03-24T14:51:05;3.25;;;2.80;;
6832;SDS011;3454;42.654;23.378;2023-03-24T14:53:38;4.38;;;2.97;;
6832;SDS011;3454;42.654;23.378;2023-03-24T14:56:05;5.38;;;2.63;;
6832;SDS011;3454;42.654;23.378;2023-03-24T14:58:37;5.93;;;2.75;;
6832;SDS011;3454;42.654;23.378;2023-03-24T15:01:08;3.25;;;2.95;;
6832;SDS011;3454;42.654;23.378;2023-03-24T15:08:35;8.57;;;3.70;;
6832;SDS011;3454;42.654;23.378;2023-03-24T15:11:04;8.02;;;3.10;;
6832;SDS011;3454;42.654;23.378;2023-03-24T15:13:38;6.47;;;3.13;;
6832;SDS011;3454;42.654;23.378;2023-03-24T15:18:47;5.15;;;3.65;;
6832;SDS011;3454;42.654;23.378;2023-03-24T15:21:25;5.53;;;3.55;;
6832;SDS011;3454;42.654;23.378;2023-03-24T15:23:57;7.97;;;3.78;;
6832;SDS011;3454;42.654;23.378;2023-03-24T15:26:26;11.07;;;3.85;;
6832;SDS011;3454;42.654;23.378;2023-03-24T15:29:00;5.03;;;3.20;;
6832;SDS011;3454;42.654;23.378;2023-03-24T15:31:29;5.28;;;3.22;;
6832;SDS011;3454;42.654;23.378;2023-03-24T15:34:56;6.85;;;3.17;;
6832;SDS011;3454;42.654;23.378;2023-03-24T15:37:00;8.90;;;3.53;;
6832;SDS011;3454;42.654;23.378;2023-03-24T15:39:28;7.22;;;4.03;;
6832;SDS011;3454;42.654;23.378;2023-03-24T15:41:58;7.88;;;3.70;;
6832;SDS011;3454;42.654;23.378;2023-03-24T15:44:24;7.60;;;4.00;;
6832;SDS011;3454;42.654;23.378;2023-03-24T15:46:58;7.15;;;3.65;;
6832;SDS011;3454;42.654;23.378;2023-03-24T15:49:30;8.55;;;3.20;;
6832;SDS011;3454;42.654;23.378;2023-03-24T15:52:22;4.32;;;3.35;;
6832;SDS011;3454;42.654;23.378;2023-03-24T15:55:00;7.93;;;3.88;;
6832;SDS011;3454;42.654;23.378;2023-03-24T15:57:36;8.65;;;3.72;;
6832;SDS011;3454;42.654;23.378;2023-03-24T16:00:14;7.57;;;3.92;;
6832;SDS011;3454;42.654;23.378;2023-03-24T16:02:48;6.95;;;3.42;;
6832;SDS011;3454;42.654;23.378;2023-03-24T16:05:20;6.65;;;3.22;;
6832;SDS011;3454;42.654;23.378;2023-03-24T16:13:10;6.88;;;3.67;;
6832;SDS011;3454;42.654;23.378;2023-03-24T16:15:40;6.32;;;3.90;;
6832;SDS011;3454;42.654;23.378;2023-03-24T16:18:12;7.18;;;3.42;;
6832;SDS011;3454;42.654;23.378;2023-03-24T16:20:43;9.13;;;3.88;;
6832;SDS011;3454;42.654;23.378;2023-03-24T16:23:11;8.13;;;3.88;;
6832;SDS011;3454;42.654;23.378;2023-03-24T16:25:37;6.57;;;3.90;;
6832;SDS011;3454;42.654;23.378;2023-03-24T16:28:02;11.00;;;4.25;;
6832;SDS011;3454;42.654;23.378;2023-03-24T16:30:29;7.32;;;4.30;;
6832;SDS011;3454;42.654;23.378;2023-03-24T16:33:02;7.18;;;3.67;;
6832;SDS011;3454;42.654;23.378;2023-03-24T16:35:28;8.23;;;3.67;;
6832;SDS011;3454;42.654;23.378;2023-03-24T16:38:01;7.05;;;3.80;;
6832;SDS011;3454;42.654;23.378;2023-03-24T16:40:29;11.35;;;3.83;;
6832;SDS011;3454;42.654;23.378;2023-03-24T16:42:59;7.22;;;4.28;;
6832;SDS011;3454;42.654;23.378;2023-03-24T16:45:26;7.15;;;3.95;;
6832;SDS011;3454;42.654;23.378;2023-03-24T16:47:53;10.05;;;4.15;;
6832;SDS011;3454;42.654;23.378;2023-03-24T16:50:21;10.55;;;4.60;;
6832;SDS011;3454;42.654;23.378;2023-03-24T16:52:51;7.63;;;4.20;;
6832;SDS011;3454;42.654;23.378;2023-03-24T16:55:17;9.30;;;4.10;;
6832;SDS011;3454;42.654;23.378;2023-03-24T16:57:42;6.70;;;4.22;;
6832;SDS011;3454;42.654;23.378;2023-03-24T17:00:08;11.77;;;4.25;;
6832;SDS011;3454;42.654;23.378;2023-03-24T17:02:35;15.50;;;4.43;;
6832;SDS011;3454;42.654;23.378;2023-03-24T17:05:33;8.48;;;4.60;;
6832;SDS011;3454;42.654;23.378;2023-03-24T17:07:58;11.52;;;4.75;;
6832;SDS011;3454;42.654;23.378;2023-03-24T17:10:30;10.30;;;4.78;;
6832;SDS011;3454;42.654;23.378;2023-03-24T17:13:02;13.32;;;5.60;;
6832;SDS011;3454;42.654;23.378;2023-03-24T17:15:28;15.32;;;5.55;;
6832;SDS011;3454;42.654;23.378;2023-03-24T17:17:55;12.95;;;5.88;;
6832;SDS011;3454;42.654;23.378;2023-03-24T17:20:21;12.35;;;6.47;;
6832;SDS011;3454;42.654;23.378;2023-03-24T17:22:50;17.02;;;11.50;;
6832;SDS011;3454;42.654;23.378;2023-03-24T17:25:19;11.23;;;7.18;;
6832;SDS011;3454;42.654;23.378;2023-03-24T17:27:47;12.73;;;7.63;;
6832;SDS011;3454;42.654;23.378;2023-03-24T17:30:17;14.05;;;6.10;;
6832;SDS011;3454;42.654;23.378;2023-03-24T17:32:44;7.30;;;5.13;;
6832;SDS011;3454;42.654;23.378;2023-03-24T17:35:11;11.93;;;5.75;;
6832;SDS011;3454;42.654;23.378;2023-03-24T17:37:39;10.48;;;5.20;;
6832;SDS011;3454;42.654;23.378;2023-03-24T17:40:05;7.22;;;4.75;;
6832;SDS011;3454;42.654;23.378;2023-03-24T17:42:36;6.45;;;4.53;;
6832;SDS011;3454;42.654;23.378;2023-03-24T17:45:06;6.00;;;4.55;;
6832;SDS011;3454;42.654;23.378;2023-03-24T17:47:33;6.13;;;4.40;;
6832;SDS011;3454;42.654;23.378;2023-03-24T17:49:59;4.97;;;4.00;;
6832;SDS011;3454;42.654;23.378;2023-03-24T17:52:25;8.27;;;4.47;;
6832;SDS011;3454;42.654;23.378;2023-03-24T17:54:51;8.02;;;4.90;;